Columbus, Ohio
Traffic Map
Current Weather Conditions
Columbus, Ohio
Overcast
Overcast
-2°
Feels Like: -8°
Wind Chill: -8° Ceiling: 4300
Heat Index: -2° Visibility: 10mi
Dew Point: -9° Wind: 16mph
Humidity: 56% Direction: 320° (NW)
Pressure: 29.99in Gusts: 0mph
Raw Report DataKCMH 272151Z 32014KT 10SM OVC043 M02/M09 A2999 RMK AO2 SNE30 SLP165 P0000 T10171094
Traffic Incident Summary
Active as of:
Severity:
Category:
InformationThere was an issue retrieving the traffic information for this location. Please try a different location or try again shortly.
Advertisements
Track Severe Weather on mobile